createdAt,value
2018-12-08T00:00:45.588Z,56.80
2018-12-08T00:03:11.876Z,57.10
2018-12-08T00:05:38.791Z,56.40
2018-12-08T00:08:05.033Z,55.30
2018-12-08T00:10:31.291Z,55.80
2018-12-08T00:12:58.297Z,56.80
2018-12-08T00:15:24.604Z,56.80
2018-12-08T00:17:50.848Z,57.10
2018-12-08T00:20:17.106Z,57.50
2018-12-08T00:22:43.383Z,57.40
2018-12-08T00:25:09.656Z,57.50
2018-12-08T00:27:35.909Z,58.00
2018-12-08T00:30:02.745Z,57.80
2018-12-08T00:32:29.715Z,58.70
2018-12-08T00:34:55.939Z,58.70
2018-12-08T00:37:22.188Z,58.50
2018-12-08T00:39:48.452Z,58.70
2018-12-08T00:42:14.823Z,57.70
2018-12-08T00:44:41.053Z,58.00
2018-12-08T00:47:07.284Z,57.80
2018-12-08T00:49:33.522Z,57.00
2018-12-08T00:51:59.812Z,56.80
2018-12-08T00:54:26.780Z,56.80
2018-12-08T00:56:53.016Z,56.70
2018-12-08T00:59:19.229Z,56.70
2018-12-08T01:01:45.467Z,58.60
2018-12-08T01:04:11.718Z,58.60
2018-12-08T01:06:37.953Z,58.20
2018-12-08T01:09:04.241Z,57.70
2018-12-08T01:11:30.489Z,58.40
2018-12-08T01:13:56.743Z,56.70
2018-12-08T01:16:22.998Z,56.70
2018-12-08T01:18:49.982Z,57.70
2018-12-08T01:21:16.956Z,55.60
2018-12-08T01:23:43.294Z,56.40
2018-12-08T01:26:09.540Z,57.10
2018-12-08T01:28:35.790Z,56.90
2018-12-08T01:31:02.149Z,57.20
2018-12-08T01:33:28.414Z,57.30
2018-12-08T01:35:55.399Z,58.40
2018-12-08T01:38:22.396Z,57.50
2018-12-08T01:40:48.861Z,57.50
2018-12-08T01:43:15.819Z,57.50
2018-12-08T01:45:42.057Z,57.50
2018-12-08T01:48:08.325Z,57.00
2018-12-08T01:50:34.558Z,56.70
2018-12-08T01:53:00.814Z,57.50
2018-12-08T01:55:27.792Z,57.50
2018-12-08T01:57:54.021Z,57.50
2018-12-08T02:00:20.275Z,57.30
2018-12-08T02:02:46.512Z,56.90
2018-12-08T02:05:12.771Z,56.80
2018-12-08T02:07:39.740Z,57.50
2018-12-08T02:10:05.985Z,57.50
2018-12-08T02:12:32.244Z,57.20
2018-12-08T02:14:58.486Z,57.40
2018-12-08T02:17:25.499Z,57.30
2018-12-08T02:19:51.763Z,57.30
2018-12-08T02:22:18.085Z,57.30
2018-12-08T02:24:44.309Z,57.30
2018-12-08T02:27:10.621Z,57.30
2018-12-08T02:29:37.188Z,57.40
2018-12-08T02:32:03.467Z,57.40
2018-12-08T02:34:29.689Z,57.40
2018-12-08T02:36:56.216Z,57.40
2018-12-08T02:39:22.449Z,57.40
2018-12-08T02:41:48.725Z,57.30
2018-12-08T02:44:15.165Z,57.40
2018-12-08T02:46:42.129Z,57.20
2018-12-08T02:49:09.088Z,56.80
2018-12-08T02:51:35.406Z,56.90
2018-12-08T02:54:02.428Z,57.30
2018-12-08T02:56:29.404Z,58.00
2018-12-08T02:58:55.695Z,57.30
2018-12-08T03:01:21.917Z,56.80
2018-12-08T03:03:48.150Z,57.90
2018-12-08T03:06:16.349Z,58.00
2018-12-08T03:08:42.579Z,57.30
2018-12-08T03:11:08.812Z,57.40
2018-12-08T03:13:35.039Z,56.40
2018-12-08T03:16:01.259Z,56.70
2018-12-08T03:18:27.533Z,56.20
2018-12-08T03:20:53.747Z,57.10
2018-12-08T03:23:19.976Z,57.50
2018-12-08T03:25:46.264Z,57.50
2018-12-08T03:28:12.530Z,57.50
2018-12-08T03:30:38.779Z,57.50
2018-12-08T03:33:05.024Z,57.50
2018-12-08T03:35:32.028Z,57.50
2018-12-08T03:37:58.269Z,57.50
2018-12-08T03:40:24.497Z,57.30
2018-12-08T03:42:50.793Z,57.30
2018-12-08T03:45:17.036Z,57.20
2018-12-08T03:47:43.243Z,57.20
2018-12-08T03:50:09.539Z,57.20
2018-12-08T03:52:35.752Z,57.30
2018-12-08T03:55:02.020Z,57.30
2018-12-08T03:57:28.265Z,56.90
2018-12-08T03:59:54.529Z,57.20
2018-12-08T04:02:20.804Z,57.20
2018-12-08T04:04:47.055Z,56.60
2018-12-08T04:07:13.335Z,56.50
2018-12-08T04:09:40.336Z,57.10
2018-12-08T04:12:06.613Z,57.10
2018-12-08T04:14:33.693Z,57.30
2018-12-08T04:17:00.037Z,57.30
2018-12-08T04:19:26.317Z,56.50
2018-12-08T04:21:53.379Z,56.50
2018-12-08T04:24:19.660Z,56.50
2018-12-08T04:26:45.900Z,56.80
2018-12-08T04:29:12.129Z,57.20
2018-12-08T04:31:38.384Z,57.30
2018-12-08T04:34:04.632Z,57.20
2018-12-08T04:36:30.911Z,57.30
2018-12-08T04:38:57.168Z,57.30
2018-12-08T04:41:24.179Z,56.60
2018-12-08T04:43:50.419Z,56.50
2018-12-08T04:46:16.648Z,57.30
2018-12-08T04:48:42.917Z,57.30
2018-12-08T04:51:09.980Z,57.10
2018-12-08T04:53:36.216Z,57.10
2018-12-08T04:56:03.216Z,57.30
2018-12-08T04:58:29.477Z,57.20
2018-12-08T05:00:55.703Z,56.90
2018-12-08T05:03:22.705Z,56.70
2018-12-08T05:05:48.964Z,56.50
2018-12-08T05:08:15.196Z,57.10
2018-12-08T05:10:42.218Z,57.10
2018-12-08T05:13:08.447Z,57.10
2018-12-08T05:15:34.719Z,57.10
2018-12-08T05:18:01.056Z,57.10
2018-12-08T05:20:27.315Z,56.60
2018-12-08T05:22:53.557Z,56.60
2018-12-08T05:25:19.806Z,56.90
2018-12-08T05:27:46.859Z,57.00
2018-12-08T05:30:13.887Z,57.10
2018-12-08T05:32:40.893Z,56.80
2018-12-08T05:35:07.152Z,56.70
2018-12-08T05:37:34.179Z,56.10
2018-12-08T05:40:00.541Z,56.00
2018-12-08T05:42:27.532Z,56.10
2018-12-08T05:44:53.809Z,56.10
2018-12-08T05:47:20.821Z,57.20
2018-12-08T05:49:47.089Z,57.90
2018-12-08T05:52:14.093Z,56.60
2018-12-08T05:54:40.365Z,56.50
2018-12-08T05:57:07.358Z,57.00
2018-12-08T05:59:33.681Z,57.00
2018-12-08T06:01:59.935Z,57.00
2018-12-08T06:04:26.201Z,57.00
2018-12-08T06:06:53.164Z,57.00
2018-12-08T06:09:19.468Z,57.00
2018-12-08T06:11:46.473Z,56.90
2018-12-08T06:14:12.709Z,56.80
2018-12-08T06:16:38.974Z,56.40
2018-12-08T06:19:05.968Z,55.90
2018-12-08T06:21:33.211Z,55.80
2018-12-08T06:23:59.464Z,56.20
2018-12-08T06:26:25.751Z,57.00
2018-12-08T06:28:52.044Z,57.00
2018-12-08T06:31:19.104Z,57.00
2018-12-08T06:33:45.335Z,56.90
2018-12-08T06:36:11.632Z,57.00
2018-12-08T06:38:37.848Z,56.90
2018-12-08T06:41:04.120Z,56.90
2018-12-08T06:43:31.120Z,57.00
2018-12-08T06:45:58.340Z,56.90
2018-12-08T06:48:24.597Z,56.50
2018-12-08T06:50:50.909Z,56.20
2018-12-08T06:53:17.248Z,56.80
2018-12-08T06:55:43.503Z,56.70
2018-12-08T06:58:10.502Z,56.40
2018-12-08T07:00:36.786Z,56.40
2018-12-08T07:03:03.824Z,56.70
2018-12-08T07:05:30.093Z,56.60
2018-12-08T07:07:56.401Z,56.70
2018-12-08T07:10:22.695Z,56.30
2018-12-08T07:12:49.034Z,56.10
2018-12-08T07:15:15.300Z,56.10
2018-12-08T07:17:41.580Z,56.80
2018-12-08T07:20:07.837Z,56.80
2018-12-08T07:22:34.142Z,56.70
2018-12-08T07:25:00.426Z,56.80
2018-12-08T07:27:27.376Z,56.60
2018-12-08T07:29:53.690Z,56.60
2018-12-08T07:32:19.953Z,56.70
2018-12-08T07:34:46.280Z,56.70
2018-12-08T07:37:12.589Z,56.60
2018-12-08T07:39:38.815Z,57.10
2018-12-08T07:42:05.097Z,56.60
2018-12-08T07:44:31.351Z,56.70
2018-12-08T07:46:58.328Z,56.70
2018-12-08T07:49:24.613Z,56.70
2018-12-08T07:51:50.872Z,56.70
2018-12-08T07:54:17.989Z,56.20
2018-12-08T07:56:44.257Z,56.80
2018-12-08T07:59:10.540Z,56.80
2018-12-08T08:01:36.809Z,56.90
2018-12-08T08:04:03.107Z,57.00
2018-12-08T08:06:30.107Z,57.10
2018-12-08T08:08:56.402Z,57.00
2018-12-08T08:11:22.725Z,56.80
2018-12-08T08:13:48.965Z,58.20
2018-12-08T08:16:15.205Z,58.00
2018-12-08T08:18:41.498Z,57.90
2018-12-08T08:21:07.798Z,58.60
2018-12-08T08:23:34.044Z,59.00
2018-12-08T08:26:01.088Z,60.50
2018-12-08T08:28:27.496Z,60.40
2018-12-08T08:30:53.884Z,61.30
2018-12-08T08:33:20.126Z,61.00
2018-12-08T08:35:46.429Z,62.00
2018-12-08T08:38:13.460Z,62.50
2018-12-08T08:40:39.792Z,62.50
2018-12-08T08:43:06.840Z,62.10
2018-12-08T08:45:33.197Z,62.10
2018-12-08T08:47:59.732Z,62.50
2018-12-08T08:50:25.997Z,62.30
2018-12-08T08:52:53.056Z,62.00
2018-12-08T08:55:21.141Z,62.00
2018-12-08T08:57:47.436Z,61.90
2018-12-08T09:00:13.765Z,62.20
2018-12-08T09:02:40.007Z,62.60
2018-12-08T09:05:06.351Z,62.00
2018-12-08T09:07:33.385Z,61.40
2018-12-08T09:10:00.451Z,60.90
2018-12-08T09:12:27.529Z,60.90
2018-12-08T09:14:54.193Z,61.10
2018-12-08T09:17:20.469Z,61.30
2018-12-08T09:19:47.491Z,61.70
2018-12-08T09:22:14.502Z,60.90
2018-12-08T09:24:41.508Z,62.00
2018-12-08T09:27:07.805Z,62.00
2018-12-08T09:29:34.384Z,62.00
2018-12-08T09:32:00.685Z,62.20
2018-12-08T09:34:26.929Z,62.60
2018-12-08T09:36:54.050Z,63.60
2018-12-08T09:39:20.320Z,63.60
2018-12-08T09:41:46.565Z,63.70
2018-12-08T09:44:12.845Z,63.90
2018-12-08T09:46:39.133Z,64.60
2018-12-08T09:49:05.420Z,63.90
2018-12-08T09:51:31.643Z,64.20
2018-12-08T09:53:57.901Z,65.00
2018-12-08T09:56:24.275Z,64.40
2018-12-08T09:58:50.565Z,64.20
2018-12-08T10:01:16.967Z,65.20
2018-12-08T10:03:44.045Z,65.30
2018-12-08T10:06:10.328Z,65.20
2018-12-08T10:08:36.585Z,65.70
2018-12-08T10:11:02.872Z,66.90
2018-12-08T10:13:29.206Z,66.90
2018-12-08T10:15:55.499Z,66.90
2018-12-08T10:18:21.872Z,66.80
2018-12-08T10:20:48.160Z,66.80
2018-12-08T10:23:14.486Z,67.70
2018-12-08T10:25:40.780Z,67.00
2018-12-08T10:28:07.060Z,66.50
2018-12-08T10:30:33.331Z,66.90
2018-12-08T10:33:00.383Z,67.00
2018-12-08T10:35:27.397Z,67.50
2018-12-08T10:37:53.620Z,67.40
2018-12-08T10:40:19.889Z,66.90
2018-12-08T10:42:46.928Z,67.40
2018-12-08T10:45:13.897Z,67.20
2018-12-08T10:47:40.132Z,67.20
2018-12-08T10:50:06.471Z,68.10
2018-12-08T10:52:32.734Z,67.60
2018-12-08T10:54:59.068Z,67.30
2018-12-08T10:57:26.089Z,67.30
2018-12-08T10:59:52.429Z,67.00
2018-12-08T11:02:24.673Z,67.50
2018-12-08T11:04:50.971Z,66.90
2018-12-08T11:07:17.994Z,68.40
2018-12-08T11:09:45.032Z,67.80
2018-12-08T11:12:12.138Z,67.40
2018-12-08T11:14:39.104Z,67.90
2018-12-08T11:17:05.363Z,67.90
2018-12-08T11:19:31.678Z,68.30
2018-12-08T11:21:57.971Z,68.60
2018-12-08T11:24:24.246Z,68.70
2018-12-08T11:26:52.240Z,68.50
2018-12-08T11:29:18.553Z,68.30
2018-12-08T11:31:44.935Z,68.20
2018-12-08T11:34:11.177Z,68.10
2018-12-08T11:36:37.479Z,67.80
2018-12-08T11:39:03.784Z,67.30
2018-12-08T11:41:30.079Z,67.90
2018-12-08T11:43:56.360Z,67.50
2018-12-08T11:46:22.634Z,67.70
2018-12-08T11:48:48.872Z,67.70
2018-12-08T11:51:15.139Z,68.00
2018-12-08T11:53:41.425Z,68.10
2018-12-08T11:56:07.711Z,67.50
2018-12-08T11:58:34.018Z,67.70
2018-12-08T12:01:00.377Z,67.20
2018-12-08T12:03:28.217Z,67.30
2018-12-08T12:05:54.561Z,67.30
2018-12-08T12:08:20.937Z,67.30
2018-12-08T12:10:47.498Z,67.20
2018-12-08T12:13:13.848Z,68.30
2018-12-08T12:15:40.235Z,68.20
2018-12-08T12:18:06.539Z,68.30
2018-12-08T12:20:32.875Z,68.70
2018-12-08T12:22:59.337Z,68.20
2018-12-08T12:25:25.669Z,67.30
2018-12-08T12:27:52.749Z,67.40
2018-12-08T12:30:19.117Z,67.40
2018-12-08T12:32:45.413Z,67.60
2018-12-08T12:35:11.679Z,67.40
2018-12-08T12:37:38.756Z,67.40
2018-12-08T12:40:05.103Z,67.30
2018-12-08T12:42:31.557Z,67.90
2018-12-08T12:44:57.993Z,68.60
2018-12-08T12:47:25.269Z,67.90
2018-12-08T12:49:52.327Z,68.00
2018-12-08T12:52:20.017Z,68.20
2018-12-08T12:54:46.347Z,68.00
2018-12-08T12:57:12.625Z,68.50
2018-12-08T12:59:40.211Z,68.90
2018-12-08T13:02:07.200Z,68.40
2018-12-08T13:04:33.456Z,68.30
2018-12-08T13:07:00.516Z,69.10
2018-12-08T13:09:26.776Z,68.40
2018-12-08T13:11:53.085Z,68.20
2018-12-08T13:14:20.144Z,68.50
2018-12-08T13:16:47.248Z,68.00
2018-12-08T13:19:13.579Z,67.90
2018-12-08T13:21:39.864Z,69.00
2018-12-08T13:24:07.135Z,69.60
2018-12-08T13:26:33.418Z,69.10
2018-12-08T13:28:59.915Z,69.10
2018-12-08T13:31:26.553Z,69.10
2018-12-08T13:33:53.678Z,69.20
2018-12-08T13:36:20.042Z,69.20
2018-12-08T13:38:46.354Z,69.10
2018-12-08T13:41:12.713Z,69.70
2018-12-08T13:43:39.599Z,69.10
2018-12-08T13:46:05.917Z,69.30
2018-12-08T13:48:32.251Z,69.10
2018-12-08T13:50:58.658Z,68.20
2018-12-08T13:53:24.953Z,68.20
2018-12-08T13:55:51.537Z,67.50
2018-12-08T13:58:17.961Z,68.60
2018-12-08T14:00:45.005Z,67.90
2018-12-08T14:03:12.011Z,67.60
2018-12-08T14:05:38.282Z,67.60
2018-12-08T14:08:04.664Z,67.60
2018-12-08T14:10:31.004Z,67.70
2018-12-08T14:12:57.509Z,67.30
2018-12-08T14:15:24.825Z,67.50
2018-12-08T14:17:51.906Z,67.70
2018-12-08T14:20:19.067Z,67.70
2018-12-08T14:22:45.325Z,67.70
2018-12-08T14:25:11.893Z,67.50
2018-12-08T14:27:38.957Z,67.60
2018-12-08T14:30:05.385Z,67.60
2018-12-08T14:32:32.426Z,67.30
2018-12-08T14:34:59.432Z,66.50
2018-12-08T14:37:25.747Z,66.40
2018-12-08T14:39:52.105Z,66.50
2018-12-08T14:42:19.178Z,65.70
2018-12-08T14:44:46.184Z,65.90
2018-12-08T14:47:12.460Z,65.90
2018-12-08T14:49:40.297Z,65.90
2018-12-08T14:52:07.433Z,65.80
2018-12-08T14:54:33.763Z,64.90
2018-12-08T14:57:00.032Z,64.80
2018-12-08T14:59:26.317Z,65.10
2018-12-08T15:01:52.607Z,64.90
2018-12-08T15:04:19.007Z,65.90
2018-12-08T15:06:45.335Z,65.00
2018-12-08T15:09:12.342Z,65.50
2018-12-08T15:11:44.757Z,65.50
2018-12-08T15:14:17.184Z,65.80
2018-12-08T15:16:44.525Z,66.10
2018-12-08T15:19:10.677Z,66.40
2018-12-08T15:21:36.996Z,66.30
2018-12-08T15:24:03.477Z,66.20
2018-12-08T15:26:29.846Z,66.40
2018-12-08T15:28:56.193Z,66.50
2018-12-08T15:31:22.465Z,66.60
2018-12-08T15:33:49.505Z,66.20
2018-12-08T15:36:16.540Z,66.40
2018-12-08T15:38:42.834Z,66.40
2018-12-08T15:41:09.140Z,66.50
2018-12-08T15:43:35.395Z,66.80
2018-12-08T15:46:01.692Z,67.40
2018-12-08T15:48:27.983Z,67.30
2018-12-08T15:50:54.285Z,67.60
2018-12-08T15:53:20.591Z,67.60
2018-12-08T15:55:46.869Z,67.60
2018-12-08T15:58:13.927Z,67.30
2018-12-08T16:00:41.027Z,66.50
2018-12-08T16:03:07.308Z,66.40
2018-12-08T16:05:34.399Z,66.40
2018-12-08T16:08:00.656Z,66.40
2018-12-08T16:10:27.042Z,66.70
2018-12-08T16:12:53.442Z,67.00
2018-12-08T16:15:19.784Z,67.10
2018-12-08T16:17:46.097Z,66.60
2018-12-08T16:20:12.471Z,66.70
2018-12-08T16:22:38.845Z,66.50
2018-12-08T16:25:05.145Z,66.60
2018-12-08T16:27:31.440Z,66.40
2018-12-08T16:29:57.937Z,66.80
2018-12-08T16:32:24.239Z,67.60
2018-12-08T16:34:50.513Z,67.60
2018-12-08T16:37:16.780Z,67.50
2018-12-08T16:39:43.061Z,67.50
2018-12-08T16:42:10.076Z,67.50
2018-12-08T16:44:36.371Z,67.50
2018-12-08T16:47:02.700Z,67.50
2018-12-08T16:49:28.972Z,67.50
2018-12-08T16:51:55.997Z,67.50
2018-12-08T16:54:22.372Z,67.50
2018-12-08T16:56:48.710Z,67.40
2018-12-08T16:59:15.703Z,67.50
2018-12-08T17:01:42.108Z,67.50
2018-12-08T17:04:08.393Z,67.50
2018-12-08T17:06:34.676Z,67.80
2018-12-08T17:09:00.965Z,67.50
2018-12-08T17:11:27.466Z,67.90
2018-12-08T17:13:54.518Z,67.90
2018-12-08T17:16:20.769Z,67.80
2018-12-08T17:18:47.797Z,67.60
2018-12-08T17:21:14.215Z,67.60
2018-12-08T17:23:40.499Z,67.60
2018-12-08T17:26:06.806Z,67.00
2018-12-08T17:28:33.859Z,67.40
2018-12-08T17:31:07.060Z,66.90
2018-12-08T17:33:39.680Z,66.90
2018-12-08T17:36:06.046Z,66.50
2018-12-08T17:38:33.079Z,66.40
2018-12-08T17:40:59.476Z,66.40
2018-12-08T17:43:27.528Z,66.90
2018-12-08T17:45:53.847Z,66.10
2018-12-08T17:48:20.963Z,66.20
2018-12-08T17:50:47.293Z,65.70
2018-12-08T17:53:13.650Z,66.10
2018-12-08T17:55:39.980Z,65.90
2018-12-08T17:58:06.266Z,65.50
2018-12-08T18:00:32.584Z,65.80
2018-12-08T18:02:59.072Z,66.10
2018-12-08T18:05:26.400Z,66.20
2018-12-08T18:07:52.665Z,66.20
2018-12-08T18:10:18.976Z,66.20
2018-12-08T18:12:46.011Z,66.80
2018-12-08T18:15:13.632Z,66.50
2018-12-08T18:17:39.930Z,66.50
2018-12-08T18:20:07.106Z,66.10
2018-12-08T18:22:33.540Z,66.10
2018-12-08T18:24:59.721Z,66.20
2018-12-08T18:27:26.095Z,66.50
2018-12-08T18:29:52.403Z,66.40
2018-12-08T18:32:18.735Z,66.00
2018-12-08T18:34:45.049Z,65.90
2018-12-08T18:37:11.316Z,65.80
2018-12-08T18:39:37.604Z,65.80
2018-12-08T18:42:03.884Z,65.50
2018-12-08T18:44:30.492Z,65.10
2018-12-08T18:46:56.759Z,65.70
2018-12-08T18:49:23.091Z,65.00
2018-12-08T18:51:50.173Z,65.20
2018-12-08T18:54:16.492Z,65.20
2018-12-08T18:56:43.528Z,64.20
2018-12-08T18:59:10.469Z,64.20
2018-12-08T19:01:37.548Z,64.20
2018-12-08T19:04:03.878Z,64.10
2018-12-08T19:06:30.872Z,64.70
2018-12-08T19:08:57.179Z,64.70
2018-12-08T19:11:24.456Z,65.20
2018-12-08T19:13:52.270Z,65.20
2018-12-08T19:16:18.663Z,65.20
2018-12-08T19:18:44.972Z,65.80
2018-12-08T19:21:12.067Z,66.30
2018-12-08T19:23:43.706Z,66.30
2018-12-08T19:26:05.583Z,66.60
2018-12-08T19:28:31.875Z,66.60
2018-12-08T19:30:58.342Z,66.00
2018-12-08T19:33:24.647Z,66.30
2018-12-08T19:35:50.992Z,66.00
2018-12-08T19:38:17.942Z,66.10
2018-12-08T19:40:44.310Z,65.80
2018-12-08T19:43:10.657Z,66.00
2018-12-08T19:45:37.799Z,66.40
2018-12-08T19:48:04.226Z,66.40
2018-12-08T19:50:30.892Z,66.20
2018-12-08T19:52:57.226Z,66.60
2018-12-08T19:55:25.175Z,65.60
2018-12-08T19:57:51.522Z,66.10
2018-12-08T20:00:17.941Z,66.40
2018-12-08T20:02:44.315Z,66.60
2018-12-08T20:05:10.688Z,67.40
2018-12-08T20:07:37.037Z,67.40
2018-12-08T20:10:03.389Z,66.90
2018-12-08T20:12:29.759Z,66.90
2018-12-08T20:14:56.205Z,67.20
2018-12-08T20:17:22.714Z,67.70
2018-12-08T20:19:49.027Z,67.70
2018-12-08T20:22:16.122Z,67.70
2018-12-08T20:24:42.414Z,67.60
2018-12-08T20:27:08.998Z,67.70
2018-12-08T20:29:35.432Z,67.60
2018-12-08T20:32:02.511Z,68.90
2018-12-08T20:34:29.985Z,69.30
2018-12-08T20:36:56.373Z,69.90
2018-12-08T20:39:22.778Z,68.90
2018-12-08T20:41:49.118Z,69.40
2018-12-08T20:44:16.168Z,69.80
2018-12-08T20:46:42.498Z,69.70
2018-12-08T20:49:08.822Z,69.20
2018-12-08T20:51:35.098Z,70.20
2018-12-08T20:54:01.352Z,69.70
2018-12-08T20:56:27.660Z,69.40
2018-12-08T20:58:54.921Z,69.30
2018-12-08T21:01:21.292Z,68.90
2018-12-08T21:03:47.619Z,68.30
2018-12-08T21:06:13.905Z,67.70
2018-12-08T21:08:40.242Z,67.70
2018-12-08T21:11:06.765Z,67.70
2018-12-08T21:13:33.151Z,67.70
2018-12-08T21:16:00.132Z,67.60
2018-12-08T21:18:26.571Z,67.40
2018-12-08T21:20:52.851Z,66.90
2018-12-08T21:23:19.170Z,66.50
2018-12-08T21:25:45.472Z,64.60
2018-12-08T21:28:12.772Z,65.40
2018-12-08T21:30:39.168Z,65.50
2018-12-08T21:33:05.540Z,65.00
2018-12-08T21:35:31.787Z,64.00
2018-12-08T21:37:58.074Z,64.90
2018-12-08T21:40:24.488Z,64.30
2018-12-08T21:42:50.740Z,64.50
2018-12-08T21:45:17.819Z,64.30
2018-12-08T21:47:44.062Z,64.30
2018-12-08T21:50:10.316Z,63.80
2018-12-08T21:52:36.585Z,64.10
2018-12-08T21:55:03.594Z,64.00
2018-12-08T21:57:30.669Z,64.10
2018-12-08T21:59:57.698Z,63.70
2018-12-08T22:02:24.793Z,63.90
2018-12-08T22:04:51.084Z,63.50
2018-12-08T22:07:17.379Z,63.50
2018-12-08T22:09:43.646Z,63.60
2018-12-08T22:12:10.692Z,63.80
2018-12-08T22:14:38.638Z,63.70
2018-12-08T22:17:05.263Z,64.20
2018-12-08T22:19:31.523Z,64.40
2018-12-08T22:21:58.553Z,64.40
2018-12-08T22:24:24.877Z,64.40
2018-12-08T22:26:51.149Z,64.30
2018-12-08T22:29:17.477Z,65.90
2018-12-08T22:31:43.857Z,66.60
2018-12-08T22:34:10.873Z,67.60
2018-12-08T22:36:37.163Z,67.00
2018-12-08T22:39:04.205Z,66.40
2018-12-08T22:41:30.744Z,67.00
2018-12-08T22:43:57.740Z,67.30
2018-12-08T22:46:24.000Z,67.30
2018-12-08T22:48:50.508Z,67.30
2018-12-08T22:51:16.785Z,67.30
2018-12-08T22:53:44.476Z,67.30
2018-12-08T22:56:10.730Z,67.30
2018-12-08T22:58:36.989Z,67.20
2018-12-08T23:01:03.280Z,67.90
2018-12-08T23:03:29.548Z,67.30
2018-12-08T23:05:55.818Z,67.40
2018-12-08T23:08:22.075Z,67.40
2018-12-08T23:10:48.348Z,67.70
2018-12-08T23:13:14.633Z,68.60
2018-12-08T23:15:40.926Z,68.70
2018-12-08T23:18:07.338Z,69.30
2018-12-08T23:20:34.348Z,68.80
2018-12-08T23:23:00.599Z,68.80
2018-12-08T23:25:27.607Z,68.90
2018-12-08T23:27:53.969Z,68.80
2018-12-08T23:30:20.357Z,69.00
2018-12-08T23:32:46.645Z,69.10
2018-12-08T23:35:13.013Z,69.10
2018-12-08T23:37:40.115Z,68.60
2018-12-08T23:40:07.177Z,69.10
2018-12-08T23:42:33.660Z,69.10
2018-12-08T23:44:59.933Z,68.80
2018-12-08T23:47:26.917Z,68.70
2018-12-08T23:49:53.210Z,68.70
2018-12-08T23:52:19.506Z,68.70
2018-12-08T23:54:45.738Z,68.80
2018-12-08T23:57:11.998Z,69.00
2018-12-08T23:59:38.977Z,69.60
